Weather at Budapest Liszt Ferenc International Airport

Public forecast

Using degrees Celsius for public forecast. Weather courtesy of forecast.io.

Current aviation weather report (METAR) for Budapest Liszt Ferenc International Airport

2022/12/06 08:00 (retrieved 22 minutes ago)

LHBP 060800Z VRB02KT 4200 RA SCT004 OVC007 05/04 Q1016 BECMG 5000 -RA

Aviation forecast (TAF) for Budapest Liszt Ferenc International Airport

2022/12/06 06:10 Correction (retrieved 2 hours ago)

TAF COR LHBP 060802Z 0606/0706 25005KT 8000 -RA SCT010 OVC030 TEMPO 0606/0610 2500 RA SHRA BKN004 FEW008TCU OVC015 BECMG 0610/0612 29009KT 9999 NSW BKN015 BKN030 BECMG 0614/0617 CAVOK BECMG 0619/0621 22003KT BECMG 0621/0701 5000 BR TEMPO 0701/0706 VRB02KT 1500 BCFG BR BKN002